Time;durP1;ratioP1;P1;durP2;ratioP2;P2;SDS_P1;SDS_P2;PMS_P1;PMS_P2;Temp;Humidity;BMP_temperature;BMP_pressure;BME280_temperature;BME280_humidity;BME280_pressure;Samples;Min_cycle;Max_cycle;Signal;HPM_P1;HPM_P2
2023/04/29 00:02:19;;;;;;;16.02;5.45;;;12.90;91.20;;;;;;4896353;29;20068;-75
2023/04/29 00:04:44;;;;;;;12.48;6.82;;;12.90;91.30;;;;;;4898628;29;20040;-76
2023/04/29 00:07:14;;;;;;;14.63;6.43;;;12.70;92.30;;;;;;4899906;29;20088;-75
2023/04/29 00:09:40;;;;;;;13.57;6.03;;;12.80;91.90;;;;;;4900428;29;20036;-76
2023/04/29 00:12:06;;;;;;;13.40;6.38;;;12.80;91.80;;;;;;4899665;29;20017;-74
2023/04/29 00:14:31;;;;;;;13.02;6.18;;;12.80;91.80;;;;;;4883321;29;20097;-75
2023/04/29 00:16:57;;;;;;;14.20;5.55;;;12.80;92.10;;;;;;4899596;29;20021;-76
2023/04/29 00:19:24;;;;;;;10.25;6.03;;;12.80;92.40;;;;;;4900014;29;20025;-75
2023/04/29 00:21:50;;;;;;;14.27;6.13;;;12.80;92.20;;;;;;4899831;29;20016;-76
2023/04/29 00:24:16;;;;;;;13.38;5.85;;;12.80;92.50;;;;;;4898228;29;20477;-74
2023/04/29 00:26:42;;;;;;;13.20;6.40;;;12.80;92.00;;;;;;4898389;29;20116;-75
2023/04/29 00:29:08;;;;;;;11.18;6.13;;;12.90;92.40;;;;;;4898405;29;20043;-75
2023/04/29 00:31:34;;;;;;;15.18;7.00;;;12.90;93.20;;;;;;4898208;29;20056;-76
2023/04/29 00:34:00;;;;;;;12.65;6.32;;;12.90;93.00;;;;;;4898447;29;20123;-76
2023/04/29 00:36:26;;;;;;;12.45;6.70;;;12.90;92.30;;;;;;4898343;29;20560;-74
2023/04/29 00:38:52;;;;;;;13.73;6.25;;;12.80;93.30;;;;;;4898020;29;20025;-74
2023/04/29 00:41:18;;;;;;;15.55;7.57;;;12.80;93.20;;;;;;4898163;29;20425;-75
2023/04/29 00:43:44;;;;;;;15.13;7.35;;;12.80;92.20;;;;;;4897691;29;20059;-76
2023/04/29 00:46:10;;;;;;;15.63;6.85;;;12.80;92.30;;;;;;4899305;29;20095;-76
2023/04/29 00:48:36;;;;;;;15.27;6.60;;;12.80;92.40;;;;;;4910700;29;20036;-75
2023/04/29 00:51:04;;;;;;;11.40;6.68;;;12.70;92.20;;;;;;4899210;29;20057;-75
2023/04/29 00:53:31;;;;;;;14.32;6.78;;;12.70;91.90;;;;;;4897756;29;20100;-75
2023/04/29 00:55:59;;;;;;;13.63;7.15;;;12.80;92.20;;;;;;4898107;29;20033;-73
2023/04/29 00:58:32;;;;;;;10.15;5.53;;;12.80;92.00;;;;;;4897442;29;20024;-76
2023/04/29 01:01:05;;;;;;;10.88;6.45;;;12.80;91.30;;;;;;4886758;29;20025;-76
2023/04/29 01:03:31;;;;;;;13.95;6.80;;;12.80;91.60;;;;;;4898965;29;20073;-77
2023/04/29 01:06:09;;;;;;;14.98;6.75;;;12.90;91.90;;;;;;4897444;29;20479;-74
2023/04/29 01:09:04;;;;;;;14.98;6.53;;;13.00;91.30;;;;;;4897619;29;20043;-76
2023/04/29 01:11:38;;;;;;;14.60;6.80;;;13.00;91.90;;;;;;4840826;29;20042;-74
2023/04/29 01:14:04;;;;;;;12.10;6.40;;;13.10;91.20;;;;;;4840825;29;20038;-77
2023/04/29 01:16:43;;;;;;;16.98;5.72;;;13.10;92.10;;;;;;4840529;29;20442;-76
2023/04/29 01:19:31;;;;;;;15.38;6.93;;;13.10;91.50;;;;;;4825557;29;20115;-75
2023/04/29 01:21:57;;;;;;;15.23;5.55;;;13.10;90.70;;;;;;4840560;29;20046;-75
2023/04/29 01:24:23;;;;;;;14.88;6.75;;;13.10;90.90;;;;;;4825398;29;20052;-73
2023/04/29 01:27:00;;;;;;;10.82;5.50;;;13.10;90.30;;;;;;4841016;29;20030;-75
2023/04/29 01:30:15;;;;;;;12.30;5.57;;;13.10;90.30;;;;;;4840555;29;20553;-73
2023/04/29 01:32:53;;;;;;;10.68;5.38;;;13.00;90.00;;;;;;4825021;29;20046;-75
2023/04/29 01:35:29;;;;;;;12.93;4.93;;;13.00;89.90;;;;;;4838606;29;20040;-74
2023/04/29 01:38:03;;;;;;;16.00;6.20;;;13.00;90.90;;;;;;4828308;29;20056;-73
2023/04/29 01:40:35;;;;;;;20.27;7.30;;;13.00;89.40;;;;;;4840740;29;20364;-73
2023/04/29 01:43:14;;;;;;;11.77;5.72;;;13.00;90.00;;;;;;4840380;29;20042;-75
2023/04/29 01:45:44;;;;;;;12.25;5.93;;;12.90;90.50;;;;;;4825440;29;20384;-73
2023/04/29 01:48:11;;;;;;;15.40;6.88;;;13.00;90.40;;;;;;4846229;29;20556;-73
2023/04/29 01:50:37;;;;;;;14.35;7.18;;;13.00;89.40;;;;;;4896674;29;20053;-74
2023/04/29 01:53:09;;;;;;;13.77;7.20;;;13.00;90.10;;;;;;4896963;29;20043;-73
2023/04/29 01:55:35;;;;;;;16.83;6.60;;;13.00;90.70;;;;;;4898120;29;20696;-73
2023/04/29 01:58:19;;;;;;;14.20;6.80;;;13.00;90.60;;;;;;4897024;29;20048;-73
2023/04/29 02:01:14;;;;;;;12.38;6.68;;;13.00;90.90;;;;;;4840151;29;20129;-73
2023/04/29 02:03:40;;;;;;;12.30;6.60;;;13.00;90.70;;;;;;4809618;29;20048;-73
2023/04/29 02:06:08;;;;;;;12.50;6.72;;;13.00;90.50;;;;;;4825073;29;20622;-74
2023/04/29 02:08:35;;;;;;;13.48;6.43;;;13.00;90.20;;;;;;4824943;29;20058;-75
2023/04/29 02:11:01;;;;;;;14.48;6.50;;;13.00;90.10;;;;;;4840156;29;20564;-73
2023/04/29 02:13:32;;;;;;;14.48;5.88;;;13.10;90.00;;;;;;4824727;29;20070;-73
2023/04/29 02:16:09;;;;;;;13.27;7.43;;;13.00;90.10;;;;;;4824874;29;20034;-75
2023/04/29 02:18:37;;;;;;;11.68;6.30;;;13.00;90.00;;;;;;4839644;29;20078;-73
2023/04/29 02:21:04;;;;;;;13.73;6.63;;;13.00;90.70;;;;;;4824678;29;20030;-74
2023/04/29 02:23:36;;;;;;;15.15;6.53;;;12.90;90.30;;;;;;4824731;29;20130;-73
2023/04/29 02:26:05;;;;;;;12.13;6.22;;;13.00;90.90;;;;;;4839259;29;20045;-74
2023/04/29 02:28:33;;;;;;;11.60;6.10;;;13.00;92.40;;;;;;4839886;29;20061;-73
2023/04/29 02:30:59;;;;;;;15.80;6.35;;;13.00;91.30;;;;;;4839393;29;20090;-75
2023/04/29 02:33:25;;;;;;;12.65;5.60;;;12.90;91.60;;;;;;4839946;29;20030;-74
2023/04/29 02:35:51;;;;;;;13.45;6.85;;;13.00;91.50;;;;;;4824381;29;20042;-75
2023/04/29 02:38:17;;;;;;;13.27;7.25;;;12.90;91.90;;;;;;4884870;29;20039;-74
2023/04/29 02:40:44;;;;;;;12.23;6.57;;;12.80;91.90;;;;;;4897115;29;20032;-75
2023/04/29 02:43:10;;;;;;;14.80;6.65;;;12.80;91.60;;;;;;4880442;29;20211;-73
2023/04/29 02:45:36;;;;;;;13.20;6.45;;;12.80;91.50;;;;;;4880080;29;20108;-77
2023/04/29 02:48:03;;;;;;;14.15;7.00;;;12.80;91.60;;;;;;4895847;29;20500;-72
2023/04/29 02:50:28;;;;;;;13.15;5.80;;;12.80;91.70;;;;;;4877114;29;20063;-73
2023/04/29 02:52:54;;;;;;;14.40;5.20;;;12.80;91.70;;;;;;4877351;29;20508;-74
2023/04/29 02:55:20;;;;;;;11.32;5.25;;;12.80;92.10;;;;;;4878429;29;20021;-74
2023/04/29 02:57:46;;;;;;;12.70;6.38;;;12.80;92.00;;;;;;4878378;29;20163;-74
2023/04/29 03:00:12;;;;;;;11.43;6.00;;;12.90;92.20;;;;;;4878368;29;20393;-74
2023/04/29 03:02:38;;;;;;;13.93;5.88;;;12.90;92.40;;;;;;4861506;29;20029;-74
2023/04/29 03:05:05;;;;;;;15.13;6.20;;;12.90;92.60;;;;;;4861394;29;20419;-74
2023/04/29 03:07:31;;;;;;;14.23;6.10;;;12.90;92.80;;;;;;4878476;29;20084;-74
2023/04/29 03:09:57;;;;;;;12.68;5.85;;;12.90;93.00;;;;;;4876757;29;20115;-74
2023/04/29 03:12:23;;;;;;;13.45;6.40;;;12.80;92.20;;;;;;4861834;29;20381;-74
2023/04/29 03:14:50;;;;;;;14.02;6.13;;;12.80;92.40;;;;;;4871310;29;20557;-74
2023/04/29 03:17:17;;;;;;;10.27;5.15;;;12.70;92.80;;;;;;4877213;29;20049;-73
2023/04/29 03:19:43;;;;;;;10.30;5.00;;;12.60;92.30;;;;;;4861301;29;20451;-75
2023/04/29 03:22:10;;;;;;;11.65;5.45;;;12.70;92.60;;;;;;4876661;29;20128;-75
2023/04/29 03:24:38;;;;;;;10.90;5.72;;;12.70;92.10;;;;;;4873172;29;20124;-74
2023/04/29 03:27:04;;;;;;;9.60;5.00;;;12.70;92.40;;;;;;4876408;29;20393;-75
2023/04/29 03:29:32;;;;;;;10.13;5.50;;;12.70;91.50;;;;;;4860080;29;20128;-73
2023/04/29 03:31:58;;;;;;;10.98;5.35;;;12.80;91.80;;;;;;4875921;29;20045;-75
2023/04/29 03:34:24;;;;;;;23.40;6.00;;;12.70;91.90;;;;;;4877029;29;20037;-75
2023/04/29 03:37:06;;;;;;;6.80;4.72;;;12.70;91.30;;;;;;4876947;29;20038;-76
2023/04/29 03:39:32;;;;;;;8.73;5.20;;;12.80;91.50;;;;;;4879949;29;20021;-75
2023/04/29 03:41:58;;;;;;;13.55;5.30;;;12.80;92.40;;;;;;4863319;29;20066;-74
2023/04/29 03:44:25;;;;;;;12.32;5.80;;;12.80;92.40;;;;;;4864414;29;20044;-73
2023/04/29 03:46:54;;;;;;;7.63;4.55;;;12.80;92.60;;;;;;4863751;29;20454;-73
2023/04/29 03:49:22;;;;;;;8.98;4.45;;;12.90;92.50;;;;;;4867283;29;20470;-73
2023/04/29 03:51:48;;;;;;;12.38;4.97;;;12.90;91.80;;;;;;4877690;29;20040;-73
2023/04/29 03:54:16;;;;;;;13.38;5.03;;;12.90;92.00;;;;;;4888473;29;20029;-76
2023/04/29 03:56:43;;;;;;;14.43;5.78;;;12.90;92.40;;;;;;4871022;29;20493;-76
2023/04/29 03:59:09;;;;;;;14.65;6.53;;;12.90;92.10;;;;;;4893981;29;20037;-76
2023/04/29 04:01:37;;;;;;;18.08;8.88;;;12.70;93.60;;;;;;4876081;29;20064;-76
2023/04/29 04:04:03;;;;;;;16.05;6.00;;;12.50;93.60;;;;;;4886340;29;20071;-72
2023/04/29 04:06:30;;;;;;;14.75;6.22;;;12.40;94.70;;;;;;4886897;29;20029;-76
2023/04/29 04:08:57;;;;;;;9.82;5.43;;;12.20;94.40;;;;;;4883210;29;20465;-73
2023/04/29 04:11:27;;;;;;;11.75;5.93;;;12.30;94.40;;;;;;4884979;29;20495;-75
2023/04/29 04:13:59;;;;;;;14.82;7.03;;;12.20;94.80;;;;;;4879280;29;20448;-78
2023/04/29 04:16:24;;;;;;;16.70;7.40;;;12.10;95.00;;;;;;4879011;29;20059;-76
2023/04/29 04:18:51;;;;;;;17.33;7.47;;;12.10;94.40;;;;;;4880517;29;20025;-75
2023/04/29 04:21:17;;;;;;;14.38;7.47;;;12.00;95.80;;;;;;4863895;29;20049;-76
2023/04/29 04:23:48;;;;;;;15.18;6.80;;;11.80;96.60;;;;;;4879202;29;20041;-74
2023/04/29 04:26:19;;;;;;;10.18;6.07;;;11.90;97.40;;;;;;4860769;29;20025;-75
2023/04/29 04:29:01;;;;;;;14.77;6.55;;;11.90;95.90;;;;;;4875962;29;20040;-77
2023/04/29 04:31:39;;;;;;;11.70;6.35;;;12.00;97.20;;;;;;4860452;29;20489;-76
2023/04/29 04:34:07;;;;;;;14.25;6.65;;;11.90;96.90;;;;;;4878169;29;20085;-78
2023/04/29 04:36:33;;;;;;;13.20;6.55;;;11.90;96.90;;;;;;4863476;29;20025;-77
2023/04/29 04:38:59;;;;;;;13.57;6.05;;;11.80;97.40;;;;;;4866404;29;20068;-78
2023/04/29 04:41:25;;;;;;;7.63;4.82;;;11.90;97.80;;;;;;4880040;29;20489;-74
2023/04/29 04:43:52;;;;;;;12.93;5.47;;;11.90;97.80;;;;;;4863544;29;20057;-78
2023/04/29 04:46:28;;;;;;;7.88;4.60;;;12.10;97.90;;;;;;4878368;29;20096;-76
2023/04/29 04:49:06;;;;;;;10.18;5.15;;;12.00;99.20;;;;;;4877936;29;20041;-77
2023/04/29 04:51:36;;;;;;;11.55;5.18;;;12.20;97.60;;;;;;4891477;29;20037;-77
2023/04/29 04:54:01;;;;;;;8.75;5.30;;;12.10;98.40;;;;;;4894059;29;20033;-78
2023/04/29 04:56:29;;;;;;;8.93;4.97;;;12.10;98.50;;;;;;4894100;29;20428;-76
2023/04/29 04:58:55;;;;;;;8.95;4.97;;;12.30;99.40;;;;;;4862538;29;20120;-78
2023/04/29 05:01:21;;;;;;;10.57;5.70;;;12.50;99.50;;;;;;4879722;29;20108;-79
2023/04/29 05:03:47;;;;;;;9.80;4.70;;;12.60;98.90;;;;;;4878255;29;20493;-79
2023/04/29 05:06:13;;;;;;;10.77;5.20;;;12.60;98.00;;;;;;4880044;29;20037;-77
2023/04/29 05:08:41;;;;;;;10.90;5.70;;;12.80;97.80;;;;;;4893899;29;20064;-78
2023/04/29 05:11:19;;;;;;;8.07;4.47;;;12.80;96.90;;;;;;4893753;29;20085;-76
2023/04/29 05:13:56;;;;;;;15.45;6.63;;;12.90;96.60;;;;;;4875266;29;20040;-75
2023/04/29 05:16:22;;;;;;;8.95;5.25;;;12.90;97.20;;;;;;4892632;29;20021;-77
2023/04/29 05:18:48;;;;;;;12.48;5.38;;;13.00;96.70;;;;;;4875209;29;20041;-77
2023/04/29 05:21:15;;;;;;;14.57;6.05;;;12.60;95.70;;;;;;4862215;29;20036;-77
2023/04/29 05:23:42;;;;;;;10.48;5.22;;;12.70;95.80;;;;;;4893961;29;20033;-78
2023/04/29 05:26:08;;;;;;;16.05;6.35;;;12.70;95.70;;;;;;4879459;29;20396;-76
2023/04/29 05:28:35;;;;;;;16.38;6.68;;;12.90;96.50;;;;;;4893537;29;20025;-76
2023/04/29 05:31:01;;;;;;;17.17;7.32;;;12.80;96.10;;;;;;4893792;29;20063;-74
2023/04/29 05:33:27;;;;;;;13.93;7.50;;;12.90;98.20;;;;;;4893216;29;20073;-78
2023/04/29 05:35:52;;;;;;;13.35;6.38;;;13.00;97.70;;;;;;4875280;29;20088;-75
2023/04/29 05:38:18;;;;;;;13.23;6.53;;;13.10;96.80;;;;;;4868461;29;20537;-75
2023/04/29 05:40:56;;;;;;;18.23;7.43;;;13.30;96.50;;;;;;4874827;29;20037;-76
2023/04/29 05:43:34;;;;;;;11.38;6.55;;;13.50;96.60;;;;;;4877719;29;20053;-77
2023/04/29 05:46:00;;;;;;;15.30;6.47;;;13.50;96.10;;;;;;4879291;29;20544;-78
2023/04/29 05:48:28;;;;;;;11.73;5.45;;;13.70;96.10;;;;;;4878027;29;20129;-77
2023/04/29 05:50:54;;;;;;;7.68;4.65;;;13.90;96.20;;;;;;4880320;29;20408;-77
2023/04/29 05:53:20;;;;;;;11.90;5.70;;;13.90;94.50;;;;;;4897047;29;20493;-78
2023/04/29 05:55:47;;;;;;;13.30;6.15;;;13.90;95.20;;;;;;4880962;29;20041;-78
2023/04/29 05:58:13;;;;;;;10.93;5.68;;;14.00;94.80;;;;;;4896973;29;20525;-78
2023/04/29 06:00:40;;;;;;;10.45;6.55;;;13.90;94.90;;;;;;4881025;29;20487;-78
2023/04/29 06:03:13;;;;;;;15.18;6.75;;;13.90;93.60;;;;;;4896154;29;20056;-77
2023/04/29 06:05:39;;;;;;;14.10;7.15;;;13.80;94.80;;;;;;4897090;29;20029;-78
2023/04/29 06:08:18;;;;;;;13.55;7.85;;;13.80;94.80;;;;;;4896101;29;20048;-78
2023/04/29 06:11:00;;;;;;;13.25;6.53;;;13.80;94.00;;;;;;4897977;29;20111;-77
2023/04/29 06:13:26;;;;;;;13.57;7.32;;;13.80;94.10;;;;;;4898059;29;20037;-72
2023/04/29 06:15:52;;;;;;;11.82;5.82;;;14.00;94.90;;;;;;4896169;29;20168;-77
2023/04/29 06:18:19;;;;;;;16.45;6.70;;;14.10;94.00;;;;;;4895833;29;20032;-77
2023/04/29 06:20:45;;;;;;;20.17;7.53;;;14.10;93.70;;;;;;4897466;29;20032;-78
2023/04/29 06:23:11;;;;;;;21.88;7.43;;;14.10;93.10;;;;;;4880735;29;20044;-78
2023/04/29 06:25:37;;;;;;;11.70;5.97;;;14.20;95.10;;;;;;4896455;29;20036;-77
2023/04/29 06:28:07;;;;;;;13.15;6.18;;;14.20;93.60;;;;;;4896210;29;20025;-79
2023/04/29 06:30:33;;;;;;;11.40;5.60;;;14.20;94.10;;;;;;4893312;29;20036;-77
2023/04/29 06:32:59;;;;;;;10.45;6.32;;;14.20;94.00;;;;;;4896570;29;20024;-78
2023/04/29 06:35:25;;;;;;;8.75;4.78;;;14.20;93.10;;;;;;4897269;29;20389;-77
2023/04/29 06:37:56;;;;;;;12.13;4.47;;;14.20;92.90;;;;;;4896474;29;20031;-77
2023/04/29 06:41:01;;;;;;;9.80;4.30;;;14.40;93.30;;;;;;4873207;29;20422;-78
2023/04/29 06:43:27;;;;;;;12.38;4.50;;;14.50;92.90;;;;;;4866463;29;20128;-77
2023/04/29 06:46:12;;;;;;;7.88;4.30;;;14.60;92.70;;;;;;4876519;29;20044;-77
2023/04/29 06:48:54;;;;;;;7.38;3.83;;;14.70;92.70;;;;;;4860601;29;20128;-77
2023/04/29 06:51:20;;;;;;;7.53;4.18;;;14.80;91.80;;;;;;4857843;29;20131;-78
2023/04/29 06:53:47;;;;;;;9.68;4.43;;;14.80;91.90;;;;;;4870130;29;20116;-77
2023/04/29 06:56:12;;;;;;;8.20;4.47;;;14.90;91.70;;;;;;4842528;29;20041;-78
2023/04/29 06:58:39;;;;;;;8.50;4.35;;;15.00;92.50;;;;;;4841984;29;20059;-77
2023/04/29 07:01:07;;;;;;;11.45;4.63;;;14.90;91.20;;;;;;4857546;29;20045;-78
2023/04/29 07:03:33;;;;;;;12.32;4.72;;;14.90;92.80;;;;;;4836982;29;20054;-76
2023/04/29 07:05:59;;;;;;;12.32;5.20;;;15.10;92.40;;;;;;4840320;29;20045;-76
2023/04/29 07:08:25;;;;;;;14.00;7.25;;;15.10;92.00;;;;;;4846427;29;20128;-77
2023/04/29 07:10:56;;;;;;;16.70;9.02;;;15.00;93.50;;;;;;4868024;29;20576;-77
2023/04/29 07:13:23;;;;;;;15.18;7.68;;;15.00;94.00;;;;;;4903032;29;20032;-76
2023/04/29 07:15:50;;;;;;;15.30;8.50;;;14.80;92.90;;;;;;4908840;29;20550;-77
2023/04/29 07:18:16;;;;;;;16.08;8.27;;;14.60;94.00;;;;;;4888334;29;20032;-77
2023/04/29 07:20:43;;;;;;;15.20;8.05;;;14.70;94.60;;;;;;4891677;29;20043;-77
2023/04/29 07:23:09;;;;;;;15.70;9.30;;;14.80;94.20;;;;;;4900835;29;20028;-76
2023/04/29 07:25:35;;;;;;;15.57;7.85;;;15.00;94.30;;;;;;4888919;29;20047;-77
2023/04/29 07:28:03;;;;;;;15.38;8.32;;;14.80;93.50;;;;;;4892977;29;20044;-77
2023/04/29 07:30:29;;;;;;;14.80;9.13;;;14.90;93.40;;;;;;4905142;29;20020;-77
2023/04/29 07:32:56;;;;;;;21.80;10.60;;;15.00;93.60;;;;;;4901333;29;20064;-78
2023/04/29 07:35:23;;;;;;;19.67;9.93;;;14.90;94.30;;;;;;4905271;29;20123;-77
2023/04/29 07:37:49;;;;;;;17.40;9.52;;;15.00;94.70;;;;;;4896432;29;20087;-77
2023/04/29 07:40:15;;;;;;;16.13;9.65;;;14.80;94.60;;;;;;4880924;29;20119;-77
2023/04/29 07:42:42;;;;;;;15.75;7.88;;;14.80;94.60;;;;;;4876392;29;20073;-78
2023/04/29 07:45:09;;;;;;;18.30;9.48;;;14.90;94.20;;;;;;4904483;29;20076;-76
2023/04/29 07:47:35;;;;;;;18.63;9.45;;;14.90;95.60;;;;;;4898247;29;20115;-79
2023/04/29 07:50:01;;;;;;;16.48;8.18;;;14.80;94.60;;;;;;4894725;29;20468;-76
2023/04/29 07:52:27;;;;;;;12.68;6.40;;;15.00;94.90;;;;;;4904269;29;20036;-76
2023/04/29 07:54:55;;;;;;;12.55;7.03;;;14.90;94.90;;;;;;4908912;29;20090;-77
2023/04/29 07:57:21;;;;;;;13.85;7.55;;;15.00;94.00;;;;;;4896453;29;20435;-77
2023/04/29 07:59:53;;;;;;;12.43;7.18;;;15.10;94.30;;;;;;4887649;29;20032;-75
2023/04/29 08:02:21;;;;;;;12.73;8.15;;;15.20;94.10;;;;;;4899393;29;20039;-76
2023/04/29 08:04:49;;;;;;;12.77;6.38;;;15.50;94.60;;;;;;4882396;29;20044;-75
2023/04/29 08:07:16;;;;;;;12.13;6.53;;;15.50;93.40;;;;;;4886283;29;20056;-76
2023/04/29 08:09:42;;;;;;;12.85;6.85;;;15.70;93.50;;;;;;4905495;29;20067;-77
2023/04/29 08:12:09;;;;;;;28.98;7.80;;;15.60;94.10;;;;;;4882642;29;20016;-77
2023/04/29 08:14:35;;;;;;;12.75;5.82;;;16.00;94.50;;;;;;4895900;29;20512;-77
2023/04/29 08:17:02;;;;;;;9.82;5.68;;;16.30;93.60;;;;;;4879201;29;20040;-76
2023/04/29 08:19:27;;;;;;;9.32;4.97;;;16.60;92.80;;;;;;4895131;29;20025;-76
2023/04/29 08:21:53;;;;;;;20.10;5.88;;;16.20;90.20;;;;;;4895693;29;20029;-78
2023/04/29 08:24:21;;;;;;;16.08;7.15;;;16.00;90.60;;;;;;4896444;29;20408;-78
2023/04/29 08:26:47;;;;;;;16.60;7.85;;;15.70;91.80;;;;;;4887237;29;20164;-79
2023/04/29 08:29:12;;;;;;;10.43;5.82;;;15.70;91.40;;;;;;4899300;29;20119;-76
2023/04/29 08:31:38;;;;;;;12.70;6.30;;;15.50;90.90;;;;;;4902008;29;20036;-77
2023/04/29 08:34:04;;;;;;;12.80;6.75;;;15.80;91.90;;;;;;4897588;29;20032;-75
2023/04/29 08:36:30;;;;;;;11.10;6.30;;;15.90;91.70;;;;;;4899831;29;20033;-77
2023/04/29 08:38:55;;;;;;;12.02;6.55;;;16.20;92.30;;;;;;4899165;29;20037;-77
2023/04/29 08:41:22;;;;;;;21.52;6.75;;;16.30;93.10;;;;;;4898735;29;20040;-77
2023/04/29 08:43:47;;;;;;;14.88;5.80;;;16.50;92.10;;;;;;4899501;29;20479;-76
2023/04/29 08:46:14;;;;;;;14.35;6.85;;;16.10;90.80;;;;;;4899420;29;20104;-76
2023/04/29 08:48:40;;;;;;;11.30;5.38;;;16.10;91.10;;;;;;4909874;29;20047;-77
2023/04/29 08:51:07;;;;;;;13.55;6.65;;;16.20;91.40;;;;;;4899110;29;20497;-77
2023/04/29 08:53:32;;;;;;;12.43;6.53;;;16.00;90.20;;;;;;4899026;29;20504;-76
2023/04/29 08:56:07;;;;;;;13.82;6.18;;;16.20;90.30;;;;;;4899722;29;20021;-77
2023/04/29 08:58:35;;;;;;;15.90;6.93;;;16.40;90.20;;;;;;4898964;29;20127;-76
2023/04/29 09:01:01;;;;;;;13.07;7.13;;;16.50;91.20;;;;;;4898638;29;20028;-73
2023/04/29 09:03:41;;;;;;;14.68;6.90;;;16.80;92.00;;;;;;4898626;29;20045;-75
2023/04/29 09:06:10;;;;;;;15.68;7.15;;;17.00;92.20;;;;;;4899029;29;20060;-79
2023/04/29 09:08:39;;;;;;;10.07;6.50;;;17.00;90.90;;;;;;4898094;29;20033;-77
2023/04/29 09:11:09;;;;;;;14.77;7.05;;;16.90;90.90;;;;;;4898779;29;20027;-77
2023/04/29 09:13:35;;;;;;;16.23;7.65;;;17.20;91.00;;;;;;4911256;29;20033;-74
2023/04/29 09:16:00;;;;;;;14.65;7.03;;;17.30;90.50;;;;;;4909720;29;20031;-77
2023/04/29 09:18:48;;;;;;;14.82;7.57;;;17.40;91.60;;;;;;4902609;29;20080;-77
2023/04/29 09:21:26;;;;;;;16.50;6.78;;;17.50;90.60;;;;;;4887944;29;20051;-77
2023/04/29 09:23:55;;;;;;;13.30;7.00;;;16.90;90.70;;;;;;4898367;29;20040;-76
2023/04/29 09:26:22;;;;;;;14.07;7.13;;;16.70;90.70;;;;;;4898561;29;20043;-76
2023/04/29 09:29:17;;;;;;;14.15;6.88;;;17.10;92.40;;;;;;4898436;29;20037;-75
2023/04/29 09:31:44;;;;;;;20.55;8.68;;;17.00;91.20;;;;;;4898243;29;20033;-76
2023/04/29 09:34:11;;;;;;;17.85;8.18;;;16.90;91.70;;;;;;4897715;29;20076;-75
2023/04/29 09:36:49;;;;;;;11.73;6.72;;;16.80;90.20;;;;;;4880829;29;20477;-75
2023/04/29 09:39:19;;;;;;;15.15;7.57;;;16.80;89.80;;;;;;4898244;29;20024;-77
2023/04/29 09:41:54;;;;;;;14.77;7.15;;;17.10;90.90;;;;;;4898537;29;20037;-78
2023/04/29 09:44:36;;;;;;;15.50;6.55;;;17.10;90.10;;;;;;4897725;29;20040;-76
2023/04/29 09:47:02;;;;;;;13.35;6.93;;;17.40;90.20;;;;;;4898174;29;20032;-76
2023/04/29 09:49:29;;;;;;;14.27;7.32;;;17.70;90.30;;;;;;4896496;29;20048;-76
2023/04/29 09:52:00;;;;;;;16.30;8.18;;;18.00;90.90;;;;;;4897585;29;20043;-76
2023/04/29 09:54:28;;;;;;;19.15;9.30;;;18.20;90.40;;;;;;4898312;29;20524;-74
2023/04/29 09:56:55;;;;;;;22.63;8.43;;;18.50;90.00;;;;;;4898127;29;20033;-75
2023/04/29 09:59:23;;;;;;;20.33;9.18;;;18.80;90.60;;;;;;4897665;29;20401;-76
2023/04/29 10:01:50;;;;;;;15.70;8.43;;;19.00;89.30;;;;;;4897195;29;20179;-75
2023/04/29 10:04:18;;;;;;;18.13;10.05;;;19.30;88.90;;;;;;4900959;29;20116;-74
2023/04/29 10:06:47;;;;;;;15.45;9.32;;;19.40;90.40;;;;;;4896868;29;20075;-76
2023/04/29 10:09:17;;;;;;;17.85;8.93;;;19.50;90.90;;;;;;4896848;29;20089;-76
2023/04/29 10:11:47;;;;;;;19.20;10.52;;;19.30;90.40;;;;;;4897138;29;20254;-75
2023/04/29 10:14:17;;;;;;;17.98;9.70;;;19.10;88.50;;;;;;4896980;29;20035;-75
2023/04/29 10:16:51;;;;;;;23.23;9.68;;;19.30;89.50;;;;;;4896515;29;20041;-76
2023/04/29 10:19:34;;;;;;;20.33;10.55;;;19.40;91.30;;;;;;4895974;29;20028;-76
2023/04/29 10:22:18;;;;;;;20.13;9.90;;;19.30;90.10;;;;;;4887470;29;20394;-74
2023/04/29 10:24:45;;;;;;;27.08;10.10;;;19.30;89.30;;;;;;4896509;29;20108;-74
2023/04/29 10:27:12;;;;;;;17.58;9.38;;;19.10;88.70;;;;;;4889833;29;20017;-74
2023/04/29 10:29:40;;;;;;;19.20;9.07;;;19.50;90.30;;;;;;4896115;29;20020;-75
2023/04/29 10:32:11;;;;;;;17.15;9.80;;;19.70;90.40;;;;;;4896260;29;20036;-75
2023/04/29 10:34:39;;;;;;;22.13;10.05;;;19.80;89.60;;;;;;4895326;29;20111;-75
2023/04/29 10:37:10;;;;;;;16.77;9.60;;;19.50;87.70;;;;;;4895706;29;20103;-72
2023/04/29 10:39:49;;;;;;;19.38;9.88;;;19.60;90.10;;;;;;4896464;29;20385;-75
2023/04/29 10:42:26;;;;;;;17.45;9.43;;;19.80;88.90;;;;;;4895703;29;20079;-74
2023/04/29 10:45:21;;;;;;;22.42;10.25;;;19.80;88.70;;;;;;4880854;29;20450;-75
2023/04/29 10:48:04;;;;;;;18.13;8.18;;;19.60;87.00;;;;;;4892660;29;20067;-75
2023/04/29 10:50:48;;;;;;;16.33;9.57;;;19.30;87.50;;;;;;4895844;29;20069;-74
2023/04/29 10:53:18;;;;;;;14.75;8.40;;;19.40;87.90;;;;;;4884838;29;20040;-75
2023/04/29 10:55:52;;;;;;;17.20;9.73;;;19.30;88.00;;;;;;4896405;29;20029;-75
2023/04/29 10:58:41;;;;;;;17.15;8.48;;;19.40;89.00;;;;;;4896312;29;20120;-77
2023/04/29 11:01:09;;;;;;;14.63;7.40;;;19.60;89.70;;;;;;4877574;29;20074;-72
2023/04/29 11:04:03;;;;;;;17.38;8.18;;;19.60;86.70;;;;;;4891952;29;20119;-72
2023/04/29 11:06:34;;;;;;;18.80;8.05;;;19.60;88.20;;;;;;4896258;29;20032;-75
2023/04/29 11:09:33;;;;;;;15.98;7.97;;;19.40;90.90;;;;;;4883879;29;20039;-73
2023/04/29 11:12:08;;;;;;;13.05;7.50;;;19.40;90.00;;;;;;4893846;29;20511;-76
2023/04/29 11:14:42;;;;;;;22.00;7.63;;;19.40;90.90;;;;;;4896842;29;20040;-77
2023/04/29 11:17:14;;;;;;;19.05;8.73;;;19.50;88.50;;;;;;4895967;29;20377;-77
2023/04/29 11:19:49;;;;;;;21.25;8.30;;;19.50;90.00;;;;;;4895938;29;20041;-74
2023/04/29 11:22:32;;;;;;;24.52;8.60;;;19.90;89.50;;;;;;4892477;29;20033;-75
2023/04/29 11:25:04;;;;;;;11.68;7.03;;;20.30;90.80;;;;;;4894929;29;20045;-74
2023/04/29 11:27:31;;;;;;;14.23;7.10;;;20.40;86.90;;;;;;4884539;29;20024;-77
2023/04/29 11:29:58;;;;;;;16.23;8.30;;;20.50;87.90;;;;;;4896359;29;20063;-76
2023/04/29 11:32:29;;;;;;;14.63;7.80;;;20.60;87.70;;;;;;4895917;29;20032;-75
2023/04/29 11:35:16;;;;;;;17.70;7.82;;;20.70;90.30;;;;;;4895949;29;20111;-74
2023/04/29 11:37:44;;;;;;;14.27;7.95;;;20.40;89.80;;;;;;4895874;29;20064;-77
2023/04/29 11:40:12;;;;;;;13.85;6.75;;;20.30;90.00;;;;;;4896111;29;20025;-76
2023/04/29 11:42:46;;;;;;;14.67;7.17;;;20.60;91.00;;;;;;4895853;29;20097;-76
2023/04/29 11:45:12;;;;;;;13.75;8.13;;;20.80;89.50;;;;;;4895844;29;20029;-74
2023/04/29 11:47:45;;;;;;;15.82;7.03;;;20.80;87.70;;;;;;4895997;29;20017;-76
2023/04/29 11:50:11;;;;;;;15.55;6.82;;;20.90;89.90;;;;;;4895762;29;20062;-77
2023/04/29 11:52:39;;;;;;;13.52;7.28;;;20.90;90.80;;;;;;4896219;29;20033;-76
2023/04/29 11:55:08;;;;;;;15.07;6.93;;;20.80;86.60;;;;;;4883848;29;20024;-76
2023/04/29 11:57:35;;;;;;;11.88;6.65;;;20.70;87.50;;;;;;4896029;29;20037;-75
2023/04/29 12:00:01;;;;;;;14.20;6.43;;;21.10;90.20;;;;;;4898480;29;20096;-77
2023/04/29 12:02:34;;;;;;;10.85;5.43;;;21.20;88.00;;;;;;4882977;29;20041;-75
2023/04/29 12:05:05;;;;;;;12.65;6.25;;;21.20;87.50;;;;;;4899288;29;20496;-75
2023/04/29 12:07:31;;;;;;;11.57;6.05;;;21.20;85.40;;;;;;4882128;29;20028;-76
2023/04/29 12:09:57;;;;;;;18.38;5.95;;;20.80;86.50;;;;;;4899352;29;20471;-77
2023/04/29 12:12:23;;;;;;;10.63;5.10;;;20.80;86.20;;;;;;4899190;29;20046;-78
2023/04/29 12:14:49;;;;;;;9.75;5.32;;;20.70;90.60;;;;;;4896825;29;20033;-76
2023/04/29 12:17:16;;;;;;;14.40;5.65;;;20.90;88.70;;;;;;4889252;29;20093;-74
2023/04/29 12:19:43;;;;;;;12.88;5.32;;;20.70;89.90;;;;;;4898874;29;20468;-77
2023/04/29 12:22:09;;;;;;;14.75;6.80;;;20.80;91.00;;;;;;4899169;29;20064;-75
2023/04/29 12:24:35;;;;;;;12.20;6.13;;;20.70;89.90;;;;;;4886674;29;20045;-76
2023/04/29 12:27:02;;;;;;;10.88;5.25;;;20.60;87.60;;;;;;4899104;29;20028;-77
2023/04/29 12:29:28;;;;;;;13.95;5.78;;;20.70;86.80;;;;;;4898890;29;20381;-77
2023/04/29 12:31:57;;;;;;;24.38;6.03;;;20.80;89.10;;;;;;4899009;29;20024;-74
2023/04/29 12:34:30;;;;;;;13.30;5.70;;;20.70;90.20;;;;;;4898868;29;20029;-78
2023/04/29 12:36:59;;;;;;;13.43;5.70;;;20.70;89.60;;;;;;4898619;29;20152;-78
2023/04/29 12:39:25;;;;;;;11.85;5.78;;;20.70;88.90;;;;;;4900524;29;20055;-77
2023/04/29 12:41:58;;;;;;;15.15;5.78;;;20.70;88.80;;;;;;4908662;29;20036;-77
2023/04/29 12:44:26;;;;;;;10.25;5.30;;;20.70;89.90;;;;;;4882524;29;20397;-77
2023/04/29 12:46:52;;;;;;;11.32;5.45;;;20.80;88.70;;;;;;4898406;29;20017;-76
2023/04/29 12:49:20;;;;;;;12.38;5.55;;;20.80;87.80;;;;;;4899060;29;20063;-77
2023/04/29 12:51:47;;;;;;;8.27;4.60;;;21.00;90.10;;;;;;4898238;29;20047;-77